Hyundai Unity — V7PX6 — position and weather

sailwx.info

Track history (hours):
 
Tides and Currents Weather Stations Pressure Air Temp Water Temp Dewpoint Dewpoint Depression Visibility Wind Speed Wind Dir Waves Ship Positions

Hyundai Unity

Last reported at 2018-Jun-17 21:36 UTC. Time now 2018-Jun-17 22:05 UTC.
Position N 37°00' E 001°14'.

Length 294 m; draft 12.1 m.

Type: Cargo ship. MMSI: 538007483.

Date/timePositionNaut miles runAvg speedWind from/ knotsBaromVisibWave heightAir tempDewpointWater temp
2018-Jun-17 21:36N 37°00' E 001°14'220.5
2018-Jun-17 21:29N 36°60' E 001°11'1020.2
2018-Jun-17 21:00N 36°59' E 000°59'1020.2
2018-Jun-17 20:30N 36°58' E 000°46'1020.1
2018-Jun-17 20:00N 36°56' E 000°34'1020.1
2018-Jun-17 19:30N 36°53' E 000°22'1019.8
2018-Jun-17 19:00N 36°51' E 000°10'1019.5
2018-Jun-17 18:30N 36°49' W 000°02'1019.8
2018-Jun-17 18:00N 36°46' W 000°14'1020.1
2018-Jun-17 17:29N 36°44' W 000°27'1020.2
2018-Jun-17 17:00N 36°42' W 000°39'1220.1
2018-Jun-17 16:25N 36°39' W 000°53'920.4
2018-Jun-17 15:58N 36°36' W 001°04'18920.9
2018-Jun-17 06:56N 36°02' W 004°54'921.8
2018-Jun-17 06:30N 36°00' W 005°05'1122.3
2018-Jun-17 06:01N 35°59' W 005°18'1121.4
2018-Jun-17 05:30N 35°57' W 005°32'1019.9
2018-Jun-17 04:59N 35°54' W 005°44'1019.2
2018-Jun-17 04:28N 35°54' W 005°56'920.5
2018-Jun-17 04:00N 35°53' W 006°08'10620.0
2018-Jun-16 22:43N 36°19' W 008°15'420.1
2018-Jun-16 22:30N 36°20' W 008°20'1420.0
2018-Jun-16 21:46N 36°24' W 008°37'520.0
2018-Jun-16 21:30N 36°26' W 008°44'1019.9
2018-Jun-16 21:00N 36°29' W 008°55'1019.8
2018-Jun-16 20:31N 36°32' W 009°07'1019.7
2018-Jun-16 20:00N 36°36' W 009°18'1020.4
2018-Jun-16 19:31N 36°43' W 009°28'1019.9
2018-Jun-16 19:01N 36°51' W 009°34'1020.6
2018-Jun-16 18:31N 37°01' W 009°37'1020.4
2018-Jun-16 18:00N 37°11' W 009°40'1020.1
2018-Jun-16 17:31N 37°21' W 009°43'1020.0
2018-Jun-16 17:01N 37°31' W 009°46'1019.8
2018-Jun-16 16:31N 37°40' W 009°50'1019.8
2018-Jun-16 16:01N 37°50' W 009°53'1020.3
2018-Jun-16 15:30N 37°60' W 009°56'1020.4
2018-Jun-16 15:01N 38°10' W 009°58'1020.3
2018-Jun-16 14:31N 38°20' W 010°00'1020.4
2018-Jun-16 14:01N 38°30' W 010°03'1020.4
2018-Jun-16 13:30N 38°40' W 010°06'1020.2
2018-Jun-16 13:01N 38°50' W 010°08'1020.1
2018-Jun-16 12:30N 38°60' W 010°07'1020.2
2018-Jun-16 12:01N 39°10' W 010°07'1020.3
2018-Jun-16 11:30N 39°20' W 010°07'1020.4
2018-Jun-16 11:01N 39°30' W 010°07'1020.4
2018-Jun-16 10:30N 39°40' W 010°07'1020.1
2018-Jun-16 10:01N 39°50' W 010°07'1020.4
2018-Jun-16 09:30N 40°01' W 010°07'1020.4
2018-Jun-16 09:01N 40°11' W 010°08'1020.5
2018-Jun-16 08:31N 40°21' W 010°09'1020.3
2018-Jun-16 08:00N 40°31' W 010°09'1020.3
2018-Jun-16 07:31N 40°41' W 010°09'1020.4
2018-Jun-16 07:00N 40°52' W 010°08'51819.4
2018-Jun-15 04:21N 48°55' W 005°44'2217.9
2018-Jun-15 03:08N 49°06' W 005°16'717.9
2018-Jun-15 02:46N 49°10' W 005°07'5715.1
2018-Jun-14 23:00N 49°38' W 003°51'815.1
2018-Jun-14 22:28N 49°42' W 003°41'714.4
2018-Jun-14 22:00N 49°46' W 003°32'713.6
2018-Jun-14 21:30N 49°50' W 003°23'612.8
2018-Jun-14 21:00N 49°52' W 003°14'612.1
2018-Jun-14 20:30N 49°55' W 003°06'611.9
2018-Jun-14 20:01N 49°58' W 002°58'611.7
2018-Jun-14 19:30N 50°01' W 002°50'611.7
2018-Jun-14 19:00N 50°02' W 002°41'712.0
2018-Jun-14 18:24N 50°05' W 002°30'812.6
2018-Jun-14 17:47N 50°07' W 002°19'413.2
2018-Jun-14 17:30N 50°08' W 002°13'714.0
2018-Jun-14 17:00N 50°10' W 002°03'1015.1
2018-Jun-14 16:22N 50°13' W 001°48'1016.3
2018-Jun-14 15:44N 50°16' W 001°33'416.9
2018-Jun-14 15:30N 50°17' W 001°27'917.1
2018-Jun-14 15:00N 50°21' W 001°15'917.2
2018-Jun-14 14:30N 50°25' W 001°03'714.7
2018-Jun-14 14:00N 50°32' W 000°59'714.9
2018-Jun-14 13:31N 50°39' W 000°57'5 9.3
2018-Jun-14 13:00N 50°43' W 001°01'713.3
2018-Jun-14 12:31N 50°46' W 001°10'611.5
2018-Jun-14 12:01N 50°47' W 001°19'510.0
2018-Jun-14 11:30N 50°52' W 001°22'4 7.4
2018-Jun-14 11:00N 50°54' W 001°26'1 1.8
2018-Jun-14 10:29N 50°55' W 001°28'0 0.0
2018-Jun-14 09:18N 50°55' W 001°28'0 0.0
2018-Jun-14 09:00N 50°55' W 001°28'0 0.0
2018-Jun-14 08:30N 50°55' W 001°28'0 0.0
2018-Jun-14 08:00N 50°55' W 001°28'0 0.0
2018-Jun-14 07:30N 50°55' W 001°28'0 0.0
2018-Jun-14 07:00N 50°55' W 001°28'0 0.0
2018-Jun-14 06:12N 50°55' W 001°28'0 0.0
2018-Jun-14 05:54N 50°55' W 001°28'0 0.0
2018-Jun-14 04:45N 50°55' W 001°28'0 0.0
2018-Jun-14 04:30N 50°55' W 001°28'0 0.0
2018-Jun-14 03:54N 50°55' W 001°28'0 0.0
2018-Jun-14 03:27N 50°55' W 001°28'0 0.0
2018-Jun-14 02:42N 50°55' W 001°28'0 0.0
2018-Jun-14 02:30N 50°55' W 001°28'0 0.0
2018-Jun-14 01:51N 50°55' W 001°28'0 0.0
2018-Jun-13 23:18N 50°55' W 001°28'0 0.0
2018-Jun-13 21:36N 50°55' W 001°28'0 0.0
2018-Jun-13 21:18N 50°55' W 001°28'0 0.0
2018-Jun-13 17:08N 50°55' W 001°28'0 1.3
2018-Jun-13 17:00N 50°54' W 001°28'2 4.2
2018-Jun-13 16:30N 50°54' W 001°25'4 8.9
2018-Jun-13 16:00N 50°51' W 001°19'4 8.3
2018-Jun-13 15:30N 50°47' W 001°17'714.4
2018-Jun-13 15:00N 50°45' W 001°06'713.8
2018-Jun-13 14:30N 50°42' W 000°57'510.8
2018-Jun-13 14:00N 50°36' W 000°57'4 7.5
2018-Jun-13 13:30N 50°33' W 000°55'510.0
2018-Jun-13 13:00N 50°28' W 000°56'4 7.5
2018-Jun-13 12:30N 50°25' W 000°51'612.6
2018-Jun-13 12:00N 50°25' W 000°42'612.3
2018-Jun-13 11:30N 50°26' W 000°32'612.1
2018-Jun-13 11:00N 50°27' W 000°23'612.5
2018-Jun-13 10:30N 50°29' W 000°13'612.5
2018-Jun-13 10:00N 50°30' W 000°04'612.5
2018-Jun-13 09:30N 50°32' E 000°06'612.6
2018-Jun-13 09:00N 50°33' E 000°15'612.1
2018-Jun-13 08:30N 50°35' E 000°24'611.5
2018-Jun-13 08:00N 50°36' E 000°33'611.3
2018-Jun-13 07:30N 50°39' E 000°41'713.4
2018-Jun-13 07:00N 50°43' E 000°50'815.8
2018-Jun-13 06:31N 50°47' E 001°00'816.7
2018-Jun-13 06:01N 50°52' E 001°11'917.7
2018-Jun-13 05:31N 50°58' E 001°22'917.7
2018-Jun-13 05:00N 51°04' E 001°31'918.4
2018-Jun-13 04:31N 51°11' E 001°42'917.6
2018-Jun-13 04:00N 51°18' E 001°50'816.7
2018-Jun-13 03:30N 51°25' E 001°56'816.2
2018-Jun-13 03:01N 51°31' E 002°05'815.7
2018-Jun-13 02:31N 51°37' E 002°14'815.4
2018-Jun-13 02:01N 51°43' E 002°22'815.2
2018-Jun-13 01:30N 51°49' E 002°29'815.1
2018-Jun-13 00:59N 51°55' E 002°38'715.2
2018-Jun-13 00:30N 52°00' E 002°45'815.4
2018-Jun-12 23:59N 52°07' E 002°53'815.9
2018-Jun-12 23:31N 52°13' E 003°01'916.5
2018-Jun-12 22:56N 52°20' E 003°10'817.3
2018-Jun-12 22:30N 52°26' E 003°17'917.6
2018-Jun-12 22:00N 52°33' E 003°26'917.8
2018-Jun-12 21:30N 52°40' E 003°35'918.1
2018-Jun-12 21:00N 52°48' E 003°44'918.3
2018-Jun-12 20:30N 52°54' E 003°54'1118.5
2018-Jun-12 19:55N 53°01' E 004°08'818.0
2018-Jun-12 19:30N 53°06' E 004°18'1817.5
2018-Jun-12 18:30N 53°21' E 004°32'1116.2
2018-Jun-12 17:49N 53°30' E 004°44'516.2
2018-Jun-12 17:30N 53°32' E 004°51'816.2
2018-Jun-12 17:00N 53°35' E 005°04'816.1
2018-Jun-12 16:30N 53°37' E 005°17'816.3
2018-Jun-12 16:00N 53°40' E 005°30'9717.5
2018-Jun-12 10:28N 54°00' E 008°11'612.5
2018-Jun-12 10:01N 53°60' E 008°20'816.0
2018-Jun-12 09:31N 53°58' E 008°34'611.2
2018-Jun-12 09:00N 53°55' E 008°41'611.8
2018-Jun-12 08:30N 53°50' E 008°48'612.3
2018-Jun-12 08:01N 53°51' E 008°59'713.0
2018-Jun-12 07:30N 53°53' E 009°09'612.6
2018-Jun-12 07:00N 53°51' E 009°20'714.9
2018-Jun-12 06:30N 53°44' E 009°26'713.2
2018-Jun-12 06:00N 53°39' E 009°31'713.8
2018-Jun-12 05:31N 53°34' E 009°40'510.9
2018-Jun-12 05:00N 53°33' E 009°49'3 6.9
2018-Jun-12 04:31N 53°32' E 009°55'0 0.8
2018-Jun-12 03:58N 53°32' E 009°55'0 0.0
2018-Jun-12 03:28N 53°32' E 009°55'0 0.0
2018-Jun-12 02:58N 53°32' E 009°55'0 0.0
2018-Jun-12 02:25N 53°32' E 009°55'0 0.0
2018-Jun-12 01:58N 53°32' E 009°55'0 0.0
2018-Jun-12 01:28N 53°32' E 009°55'0 0.0
2018-Jun-12 00:58N 53°32' E 009°55'0 0.0
2018-Jun-12 00:28N 53°32' E 009°55'0 0.0
2018-Jun-11 23:58N 53°32' E 009°55'0 0.0
2018-Jun-11 23:28N 53°32' E 009°55'0 0.0
2018-Jun-11 22:58N 53°32' E 009°55'0 0.0
2018-Jun-11 22:28N 53°32' E 009°55'0 0.0
2018-Jun-11 21:58N 53°32' E 009°55'0 0.0
2018-Jun-11 21:28N 53°32' E 009°55'0 0.0
2018-Jun-11 20:58N 53°32' E 009°55'0 0.0
2018-Jun-11 20:28N 53°32' E 009°55'0 0.0
2018-Jun-11 19:58N 53°32' E 009°55'0 0.0
2018-Jun-11 19:28N 53°32' E 009°55'0 0.0
2018-Jun-11 18:58N 53°32' E 009°55'0 0.0
2018-Jun-11 18:28N 53°32' E 009°55'0 0.0
2018-Jun-11 17:58N 53°32' E 009°55'0 0.0
2018-Jun-11 17:28N 53°32' E 009°55'0 0.0
2018-Jun-11 16:58N 53°32' E 009°55'0 0.0
2018-Jun-11 16:28N 53°32' E 009°55'0 0.0
2018-Jun-11 15:58N 53°32' E 009°55'0 0.0
2018-Jun-11 15:28N 53°32' E 009°55'0 0.0
2018-Jun-11 14:55N 53°32' E 009°55'0 0.0
2018-Jun-11 14:28N 53°32' E 009°55'0 0.0
2018-Jun-11 13:58N 53°32' E 009°55'0 0.0
2018-Jun-11 13:28N 53°32' E 009°55'0 0.0
2018-Jun-11 12:58N 53°32' E 009°55'0 0.0
2018-Jun-11 12:28N 53°32' E 009°55'0 0.0
2018-Jun-11 11:58N 53°32' E 009°55'0 0.0
2018-Jun-11 11:28N 53°32' E 009°55'0 0.0
2018-Jun-11 10:58N 53°32' E 009°55'0 0.0
2018-Jun-11 10:28N 53°32' E 009°55'0 0.0
2018-Jun-11 09:58N 53°32' E 009°55'0 0.0
2018-Jun-11 09:28N 53°32' E 009°55'0 0.0
2018-Jun-11 08:58N 53°32' E 009°55'0 0.0
2018-Jun-11 08:28N 53°32' E 009°55'0 0.0
2018-Jun-11 07:58N 53°32' E 009°55'0 0.0
2018-Jun-11 07:28N 53°32' E 009°55'0 0.0
2018-Jun-11 06:58N 53°32' E 009°55'0 0.0
2018-Jun-11 06:28N 53°32' E 009°55'0 0.4
2018-Jun-11 06:01N 53°32' E 009°55'2 3.0
2018-Jun-11 05:31N 53°33' E 009°53'4 7.2
2018-Jun-11 05:00N 53°34' E 009°47'4 8.6
2018-Jun-11 04:31N 53°34' E 009°40'510.7
2018-Jun-11 04:00N 53°37' E 009°32'510.3
2018-Jun-11 03:30N 53°42' E 009°29'510.6
2018-Jun-11 03:00N 53°46' E 009°24'612.3
2018-Jun-11 02:30N 53°52' E 009°18'611.8
2018-Jun-11 02:00N 53°53' E 009°08'4 8.2
2018-Jun-11 01:30N 53°52' E 009°02'612.6
2018-Jun-11 01:00N 53°50' E 008°51'510.9
2018-Jun-11 00:30N 53°53' E 008°43'611.9
2018-Jun-11 00:01N 53°57' E 008°37'612.7
2018-Jun-10 23:30N 53°59' E 008°26'713.3
2018-Jun-10 23:00N 53°60' E 008°15'612.6
2018-Jun-10 22:31N 53°59' E 008°04'611.3
2018-Jun-10 22:00N 53°58' E 007°55'612.5
2018-Jun-10 21:30N 53°57' E 007°44'1013.1
2018-Jun-10 20:43N 53°54' E 007°27'412.3
2018-Jun-10 20:21N 53°53' E 007°20'1211.6
2018-Jun-10 19:21N 53°50' E 007°01'411.8
2018-Jun-10 18:58N 53°49' E 006°54'912.3
2018-Jun-10 18:16N 53°47' E 006°39'511.9
2018-Jun-10 17:49N 53°46' E 006°30'612.2
2018-Jun-10 17:22N 53°45' E 006°21'713.8
2018-Jun-10 16:52N 53°43' E 006°10'514.2
2018-Jun-10 16:30N 53°41' E 006°02'714.0
2018-Jun-10 16:00N 53°39' E 005°50'814.0
2018-Jun-10 15:26N 53°36' E 005°38'614.0
2018-Jun-10 15:00N 53°35' E 005°28'1414.4
2018-Jun-10 14:00N 53°30' E 005°06'714.9
2018-Jun-10 13:30N 53°27' E 004°54'815.4
2018-Jun-10 13:00N 53°24' E 004°42'815.6
2018-Jun-10 12:30N 53°17' E 004°36'815.6
2018-Jun-10 12:01N 53°10' E 004°30'815.2
2018-Jun-10 11:30N 53°03' E 004°24'815.1
2018-Jun-10 11:00N 52°56' E 004°18'815.1
2018-Jun-10 10:30N 52°49' E 004°13'715.0
2018-Jun-10 10:00N 52°43' E 004°08'510.1
2018-Jun-10 09:30N 52°38' E 004°04'713.2
2018-Jun-10 09:01N 52°33' E 003°57'714.3
2018-Jun-10 08:30N 52°26' E 003°54'714.2
2018-Jun-10 08:00N 52°19' E 003°51'714.5
2018-Jun-10 07:30N 52°12' E 003°53'713.1
2018-Jun-10 07:00N 52°06' E 003°54'4 7.3
2018-Jun-10 06:30N 52°02' E 003°54'713.8
2018-Jun-10 06:00N 51°59' E 004°04'2 3.3
2018-Jun-10 05:30N 51°58' E 004°02'1 2.7
2018-Jun-10 05:00N 51°58' E 004°00'0 0.9
2018-Jun-10 04:30N 51°57' E 003°60'0 0.0
2018-Jun-10 04:00N 51°57' E 003°60'0 0.0
2018-Jun-10 03:30N 51°57' E 003°60'0 0.0
2018-Jun-10 03:00N 51°57' E 003°60'0 0.0
2018-Jun-10 02:30N 51°57' E 003°60'0 0.0
2018-Jun-10 02:00N 51°57' E 003°60'0 0.0
2018-Jun-10 01:30N 51°57' E 003°60'0 0.0
2018-Jun-10 01:00N 51°57' E 003°60'0 0.0
2018-Jun-10 00:30N 51°57' E 003°60'0 0.0
2018-Jun-10 00:00N 51°57' E 003°60'0 0.0
2018-Jun-09 23:30N 51°57' E 003°60'0 0.0
2018-Jun-09 23:00N 51°57' E 003°60'0 0.0
2018-Jun-09 22:30N 51°57' E 003°60'0 0.0
2018-Jun-09 22:00N 51°57' E 003°60'0 0.0
2018-Jun-09 21:30N 51°57' E 003°60'0 0.0
2018-Jun-09 21:00N 51°57' E 003°60'0 0.0
2018-Jun-09 20:27N 51°57' E 003°60'0 0.0
2018-Jun-09 20:00N 51°57' E 003°60'0 0.0
2018-Jun-09 19:27N 51°57' E 003°60'0 0.0
2018-Jun-09 19:00N 51°57' E 003°60'0 0.0
2018-Jun-09 18:30N 51°57' E 003°60'0 0.0
2018-Jun-09 18:00N 51°57' E 003°60'0 0.0
2018-Jun-09 17:30N 51°57' E 003°60'0 0.0
2018-Jun-09 17:00N 51°57' E 003°60'0 0.0
2018-Jun-09 16:30N 51°57' E 003°60'0 0.0
2018-Jun-09 16:00N 51°57' E 003°60'0 0.0
2018-Jun-09 15:27N 51°57' E 003°60'0 0.0
2018-Jun-09 14:30N 51°57' E 003°60'0 0.0
2018-Jun-09 14:00N 51°57' E 003°60'0 0.0
2018-Jun-09 13:30N 51°57' E 003°60'0 0.0
2018-Jun-09 13:00N 51°57' E 003°60'0 0.0
2018-Jun-09 12:30N 51°57' E 003°60'0 0.0
2018-Jun-09 12:00N 51°57' E 003°60'0 0.0
2018-Jun-09 11:30N 51°57' E 003°60'0 0.0
2018-Jun-09 11:00N 51°57' E 003°60'0 0.0
2018-Jun-09 10:30N 51°57' E 003°60'0 0.0
2018-Jun-09 10:00N 51°57' E 003°60'0 0.0
2018-Jun-09 09:30N 51°57' E 003°60'0 0.0
2018-Jun-09 08:57N 51°57' E 003°60'0 0.0
2018-Jun-09 08:30N 51°57' E 003°60'0 0.0
2018-Jun-09 08:00N 51°57' E 003°60'0 0.0
2018-Jun-09 07:30N 51°57' E 003°60'0 0.0
2018-Jun-09 07:00N 51°57' E 003°60'0 0.0
2018-Jun-09 06:30N 51°57' E 003°60'0 0.0
2018-Jun-09 06:00N 51°57' E 003°60'0 0.0
2018-Jun-09 05:30N 51°57' E 003°60'0 0.0
2018-Jun-09 05:00N 51°57' E 003°60'0 0.0
2018-Jun-09 04:30N 51°57' E 003°60'0 0.0
2018-Jun-09 04:00N 51°57' E 003°60'0 0.0
2018-Jun-09 03:30N 51°57' E 003°60'0 0.0
2018-Jun-09 03:00N 51°57' E 003°60'0 0.1
2018-Jun-09 02:30N 51°57' E 003°60'0 0.0
2018-Jun-09 02:00N 51°57' E 003°60'0 0.0
2018-Jun-09 01:27N 51°57' E 003°60'0 0.0
2018-Jun-09 01:00N 51°57' E 003°60'0 0.1
2018-Jun-09 00:30N 51°57' E 003°60'1 1.8
2018-Jun-09 00:00N 51°58' E 003°60'3 5.0
2018-Jun-08 23:30N 51°58' E 004°04'2 3.5
2018-Jun-08 23:00N 51°59' E 004°02'4 8.9
2018-Jun-08 22:30N 51°60' E 003°55'510.9
2018-Jun-08 22:00N 51°59' E 003°46'510.2
2018-Jun-08 21:30N 51°58' E 003°39'612.5
2018-Jun-08 21:00N 51°56' E 003°29'714.4
2018-Jun-08 20:30N 51°54' E 003°18'714.1
2018-Jun-08 20:00N 51°52' E 003°07'815.5
2018-Jun-08 19:30N 51°50' E 002°55'815.4
2018-Jun-08 19:00N 51°47' E 002°43'714.9
2018-Jun-08 18:30N 51°43' E 002°33'715.0
2018-Jun-08 18:00N 51°38' E 002°25'714.7
2018-Jun-08 17:30N 51°32' E 002°17'714.2
2018-Jun-08 17:00N 51°26' E 002°12'714.1
2018-Jun-08 16:30N 51°19' E 002°08'713.2
2018-Jun-08 16:00N 51°14' E 002°02'713.2
2018-Jun-08 15:30N 51°10' E 001°53'510.6
2018-Jun-08 15:00N 51°07' E 001°46'510.8
2018-Jun-08 14:30N 51°03' E 001°40'612.7
2018-Jun-08 14:00N 50°58' E 001°34'712.5
2018-Jun-08 13:28N 50°53' E 001°27'612.7
2018-Jun-08 13:00N 50°47' E 001°24'612.7
2018-Jun-08 12:30N 50°42' E 001°20'612.9
2018-Jun-08 12:00N 50°37' E 001°13'713.2
2018-Jun-08 11:30N 50°33' E 001°05'713.1
2018-Jun-08 10:58N 50°29' E 000°55'713.5
2018-Jun-08 10:28N 50°27' E 000°45'613.5
2018-Jun-08 10:00N 50°26' E 000°36'713.5
2018-Jun-08 09:30N 50°24' E 000°26'713.6
2018-Jun-08 09:00N 50°22' E 000°16'713.5
2018-Jun-08 08:30N 50°19' E 000°05'713.8
2018-Jun-08 08:00N 50°17' W 000°05'713.8
2018-Jun-08 07:30N 50°15' W 000°15'713.8
2018-Jun-08 07:00N 50°12' W 000°25'713.9
2018-Jun-08 06:31N 50°10' W 000°35'714.3
2018-Jun-08 06:01N 50°08' W 000°46'714.5
2018-Jun-08 05:30N 50°05' W 000°56'815.3
2018-Jun-08 05:01N 50°03' W 001°08'816.0
2018-Jun-08 04:30N 49°60' W 001°19'815.8
2018-Jun-08 04:01N 49°54' W 001°28'815.6
2018-Jun-08 03:31N 49°48' W 001°36'612.8
2018-Jun-08 03:01N 49°44' W 001°42'4 8.2
2018-Jun-08 02:31N 49°45' W 001°48'612.0
2018-Jun-08 02:00N 49°48' W 001°56'612.4
2018-Jun-08 01:31N 49°51' W 002°05'2513.1
2018-Jun-07 23:35N 49°50' W 002°44'414.8
2018-Jun-07 23:17N 49°49' W 002°50'414.7
2018-Jun-07 23:00N 49°47' W 002°56'1614.4
2018-Jun-07 21:53N 49°39' W 003°18'  
Track history (hours):
 
Tides and Currents Weather Stations Pressure Air Temp Water Temp Dewpoint Dewpoint Depression Visibility Wind Speed Wind Dir Waves Ship Positions

Hyundai Unity

Last reported at 2018-Jun-17 21:36 UTC. Time now 2018-Jun-17 22:05 UTC.
Position N 37°00' E 001°14'.

Length 294 m; draft 12.1 m.

Type: Cargo ship. MMSI: 538007483.

Date/timePositionNaut miles runAvg speedWind from/ knotsBaromVisibWave heightAir tempDewpointWater temp
2018-Jun-17 21:36N 37°00' E 001°14'220.5
2018-Jun-17 21:29N 36°60' E 001°11'1020.2
2018-Jun-17 21:00N 36°59' E 000°59'1020.2
2018-Jun-17 20:30N 36°58' E 000°46'1020.1
2018-Jun-17 20:00N 36°56' E 000°34'1020.1
2018-Jun-17 19:30N 36°53' E 000°22'1019.8
2018-Jun-17 19:00N 36°51' E 000°10'1019.5
2018-Jun-17 18:30N 36°49' W 000°02'1019.8
2018-Jun-17 18:00N 36°46' W 000°14'1020.1
2018-Jun-17 17:29N 36°44' W 000°27'1020.2
2018-Jun-17 17:00N 36°42' W 000°39'1220.1
2018-Jun-17 16:25N 36°39' W 000°53'920.4
2018-Jun-17 15:58N 36°36' W 001°04'18920.9
2018-Jun-17 06:56N 36°02' W 004°54'921.8
2018-Jun-17 06:30N 36°00' W 005°05'1122.3
2018-Jun-17 06:01N 35°59' W 005°18'1121.4
2018-Jun-17 05:30N 35°57' W 005°32'1019.9
2018-Jun-17 04:59N 35°54' W 005°44'1019.2
2018-Jun-17 04:28N 35°54' W 005°56'920.5
2018-Jun-17 04:00N 35°53' W 006°08'10620.0
2018-Jun-16 22:43N 36°19' W 008°15'420.1
2018-Jun-16 22:30N 36°20' W 008°20'1420.0
2018-Jun-16 21:46N 36°24' W 008°37'520.0
2018-Jun-16 21:30N 36°26' W 008°44'1019.9
2018-Jun-16 21:00N 36°29' W 008°55'1019.8
2018-Jun-16 20:31N 36°32' W 009°07'1019.7
2018-Jun-16 20:00N 36°36' W 009°18'1020.4
2018-Jun-16 19:31N 36°43' W 009°28'1019.9
2018-Jun-16 19:01N 36°51' W 009°34'1020.6
2018-Jun-16 18:31N 37°01' W 009°37'1020.4
2018-Jun-16 18:00N 37°11' W 009°40'1020.1
2018-Jun-16 17:31N 37°21' W 009°43'1020.0
2018-Jun-16 17:01N 37°31' W 009°46'1019.8
2018-Jun-16 16:31N 37°40' W 009°50'1019.8
2018-Jun-16 16:01N 37°50' W 009°53'1020.3
2018-Jun-16 15:30N 37°60' W 009°56'1020.4
2018-Jun-16 15:01N 38°10' W 009°58'1020.3
2018-Jun-16 14:31N 38°20' W 010°00'1020.4
2018-Jun-16 14:01N 38°30' W 010°03'1020.4
2018-Jun-16 13:30N 38°40' W 010°06'1020.2
2018-Jun-16 13:01N 38°50' W 010°08'1020.1
2018-Jun-16 12:30N 38°60' W 010°07'1020.2
2018-Jun-16 12:01N 39°10' W 010°07'1020.3
2018-Jun-16 11:30N 39°20' W 010°07'1020.4
2018-Jun-16 11:01N 39°30' W 010°07'1020.4
2018-Jun-16 10:30N 39°40' W 010°07'1020.1
2018-Jun-16 10:01N 39°50' W 010°07'1020.4
2018-Jun-16 09:30N 40°01' W 010°07'1020.4
2018-Jun-16 09:01N 40°11' W 010°08'1020.5
2018-Jun-16 08:31N 40°21' W 010°09'1020.3
2018-Jun-16 08:00N 40°31' W 010°09'1020.3
2018-Jun-16 07:31N 40°41' W 010°09'1020.4
2018-Jun-16 07:00N 40°52' W 010°08'51819.4
2018-Jun-15 04:21N 48°55' W 005°44'2217.9
2018-Jun-15 03:08N 49°06' W 005°16'717.9
2018-Jun-15 02:46N 49°10' W 005°07'5715.1
2018-Jun-14 23:00N 49°38' W 003°51'815.1
2018-Jun-14 22:28N 49°42' W 003°41'714.4
2018-Jun-14 22:00N 49°46' W 003°32'713.6
2018-Jun-14 21:30N 49°50' W 003°23'612.8
2018-Jun-14 21:00N 49°52' W 003°14'612.1
2018-Jun-14 20:30N 49°55' W 003°06'611.9
2018-Jun-14 20:01N 49°58' W 002°58'611.7
2018-Jun-14 19:30N 50°01' W 002°50'611.7
2018-Jun-14 19:00N 50°02' W 002°41'712.0
2018-Jun-14 18:24N 50°05' W 002°30'812.6
2018-Jun-14 17:47N 50°07' W 002°19'413.2
2018-Jun-14 17:30N 50°08' W 002°13'714.0
2018-Jun-14 17:00N 50°10' W 002°03'1015.1
2018-Jun-14 16:22N 50°13' W 001°48'1016.3
2018-Jun-14 15:44N 50°16' W 001°33'416.9
2018-Jun-14 15:30N 50°17' W 001°27'917.1
2018-Jun-14 15:00N 50°21' W 001°15'917.2
2018-Jun-14 14:30N 50°25' W 001°03'714.7
2018-Jun-14 14:00N 50°32' W 000°59'714.9
2018-Jun-14 13:31N 50°39' W 000°57'5 9.3
2018-Jun-14 13:00N 50°43' W 001°01'713.3
2018-Jun-14 12:31N 50°46' W 001°10'611.5
2018-Jun-14 12:01N 50°47' W 001°19'510.0
2018-Jun-14 11:30N 50°52' W 001°22'4 7.4
2018-Jun-14 11:00N 50°54' W 001°26'1 1.8
2018-Jun-14 10:29N 50°55' W 001°28'0 0.0
2018-Jun-14 09:18N 50°55' W 001°28'0 0.0
2018-Jun-14 09:00N 50°55' W 001°28'0 0.0
2018-Jun-14 08:30N 50°55' W 001°28'0 0.0
2018-Jun-14 08:00N 50°55' W 001°28'0 0.0
2018-Jun-14 07:30N 50°55' W 001°28'0 0.0
2018-Jun-14 07:00N 50°55' W 001°28'0 0.0
2018-Jun-14 06:12N 50°55' W 001°28'0 0.0
2018-Jun-14 05:54N 50°55' W 001°28'0 0.0
2018-Jun-14 04:45N 50°55' W 001°28'0 0.0
2018-Jun-14 04:30N 50°55' W 001°28'0 0.0
2018-Jun-14 03:54N 50°55' W 001°28'0 0.0
2018-Jun-14 03:27N 50°55' W 001°28'0 0.0
2018-Jun-14 02:42N 50°55' W 001°28'0 0.0
2018-Jun-14 02:30N 50°55' W 001°28'0 0.0
2018-Jun-14 01:51N 50°55' W 001°28'0 0.0
2018-Jun-13 23:18N 50°55' W 001°28'0 0.0
2018-Jun-13 21:36N 50°55' W 001°28'0 0.0
2018-Jun-13 21:18N 50°55' W 001°28'0 0.0
2018-Jun-13 17:08N 50°55' W 001°28'0 1.3
2018-Jun-13 17:00N 50°54' W 001°28'2 4.2
2018-Jun-13 16:30N 50°54' W 001°25'4 8.9
2018-Jun-13 16:00N 50°51' W 001°19'4 8.3
2018-Jun-13 15:30N 50°47' W 001°17'714.4
2018-Jun-13 15:00N 50°45' W 001°06'713.8
2018-Jun-13 14:30N 50°42' W 000°57'510.8
2018-Jun-13 14:00N 50°36' W 000°57'4 7.5
2018-Jun-13 13:30N 50°33' W 000°55'510.0
2018-Jun-13 13:00N 50°28' W 000°56'4 7.5
2018-Jun-13 12:30N 50°25' W 000°51'612.6
2018-Jun-13 12:00N 50°25' W 000°42'612.3
2018-Jun-13 11:30N 50°26' W 000°32'612.1
2018-Jun-13 11:00N 50°27' W 000°23'612.5
2018-Jun-13 10:30N 50°29' W 000°13'612.5
2018-Jun-13 10:00N 50°30' W 000°04'612.5
2018-Jun-13 09:30N 50°32' E 000°06'612.6
2018-Jun-13 09:00N 50°33' E 000°15'612.1
2018-Jun-13 08:30N 50°35' E 000°24'611.5
2018-Jun-13 08:00N 50°36' E 000°33'611.3
2018-Jun-13 07:30N 50°39' E 000°41'713.4
2018-Jun-13 07:00N 50°43' E 000°50'815.8
2018-Jun-13 06:31N 50°47' E 001°00'816.7
2018-Jun-13 06:01N 50°52' E 001°11'917.7
2018-Jun-13 05:31N 50°58' E 001°22'917.7
2018-Jun-13 05:00N 51°04' E 001°31'918.4
2018-Jun-13 04:31N 51°11' E 001°42'917.6
2018-Jun-13 04:00N 51°18' E 001°50'816.7
2018-Jun-13 03:30N 51°25' E 001°56'816.2
2018-Jun-13 03:01N 51°31' E 002°05'815.7
2018-Jun-13 02:31N 51°37' E 002°14'815.4
2018-Jun-13 02:01N 51°43' E 002°22'815.2
2018-Jun-13 01:30N 51°49' E 002°29'815.1
2018-Jun-13 00:59N 51°55' E 002°38'715.2
2018-Jun-13 00:30N 52°00' E 002°45'815.4
2018-Jun-12 23:59N 52°07' E 002°53'815.9
2018-Jun-12 23:31N 52°13' E 003°01'916.5
2018-Jun-12 22:56N 52°20' E 003°10'817.3
2018-Jun-12 22:30N 52°26' E 003°17'917.6
2018-Jun-12 22:00N 52°33' E 003°26'917.8
2018-Jun-12 21:30N 52°40' E 003°35'918.1
2018-Jun-12 21:00N 52°48' E 003°44'918.3
2018-Jun-12 20:30N 52°54' E 003°54'1118.5
2018-Jun-12 19:55N 53°01' E 004°08'818.0
2018-Jun-12 19:30N 53°06' E 004°18'1817.5
2018-Jun-12 18:30N 53°21' E 004°32'1116.2
2018-Jun-12 17:49N 53°30' E 004°44'516.2
2018-Jun-12 17:30N 53°32' E 004°51'816.2
2018-Jun-12 17:00N 53°35' E 005°04'816.1
2018-Jun-12 16:30N 53°37' E 005°17'816.3
2018-Jun-12 16:00N 53°40' E 005°30'9717.5
2018-Jun-12 10:28N 54°00' E 008°11'612.5
2018-Jun-12 10:01N 53°60' E 008°20'816.0
2018-Jun-12 09:31N 53°58' E 008°34'611.2
2018-Jun-12 09:00N 53°55' E 008°41'611.8
2018-Jun-12 08:30N 53°50' E 008°48'612.3
2018-Jun-12 08:01N 53°51' E 008°59'713.0
2018-Jun-12 07:30N 53°53' E 009°09'612.6
2018-Jun-12 07:00N 53°51' E 009°20'714.9
2018-Jun-12 06:30N 53°44' E 009°26'713.2
2018-Jun-12 06:00N 53°39' E 009°31'713.8
2018-Jun-12 05:31N 53°34' E 009°40'510.9
2018-Jun-12 05:00N 53°33' E 009°49'3 6.9
2018-Jun-12 04:31N 53°32' E 009°55'0 0.8
2018-Jun-12 03:58N 53°32' E 009°55'0 0.0
2018-Jun-12 03:28N 53°32' E 009°55'0 0.0
2018-Jun-12 02:58N 53°32' E 009°55'0 0.0
2018-Jun-12 02:25N 53°32' E 009°55'0 0.0
2018-Jun-12 01:58N 53°32' E 009°55'0 0.0
2018-Jun-12 01:28N 53°32' E 009°55'0 0.0
2018-Jun-12 00:58N 53°32' E 009°55'0 0.0
2018-Jun-12 00:28N 53°32' E 009°55'0 0.0
2018-Jun-11 23:58N 53°32' E 009°55'0 0.0
2018-Jun-11 23:28N 53°32' E 009°55'0 0.0
2018-Jun-11 22:58N 53°32' E 009°55'0 0.0
2018-Jun-11 22:28N 53°32' E 009°55'0 0.0
2018-Jun-11 21:58N 53°32' E 009°55'0 0.0
2018-Jun-11 21:28N 53°32' E 009°55'0 0.0
2018-Jun-11 20:58N 53°32' E 009°55'0 0.0
2018-Jun-11 20:28N 53°32' E 009°55'0 0.0
2018-Jun-11 19:58N 53°32' E 009°55'0 0.0
2018-Jun-11 19:28N 53°32' E 009°55'0 0.0
2018-Jun-11 18:58N 53°32' E 009°55'0 0.0
2018-Jun-11 18:28N 53°32' E 009°55'0 0.0
2018-Jun-11 17:58N 53°32' E 009°55'0 0.0
2018-Jun-11 17:28N 53°32' E 009°55'0 0.0
2018-Jun-11 16:58N 53°32' E 009°55'0 0.0
2018-Jun-11 16:28N 53°32' E 009°55'0 0.0
2018-Jun-11 15:58N 53°32' E 009°55'0 0.0
2018-Jun-11 15:28N 53°32' E 009°55'0 0.0
2018-Jun-11 14:55N 53°32' E 009°55'0 0.0
2018-Jun-11 14:28N 53°32' E 009°55'0 0.0
2018-Jun-11 13:58N 53°32' E 009°55'0 0.0
2018-Jun-11 13:28N 53°32' E 009°55'0 0.0
2018-Jun-11 12:58N 53°32' E 009°55'0 0.0
2018-Jun-11 12:28N 53°32' E 009°55'0 0.0
2018-Jun-11 11:58N 53°32' E 009°55'0 0.0
2018-Jun-11 11:28N 53°32' E 009°55'0 0.0
2018-Jun-11 10:58N 53°32' E 009°55'0 0.0
2018-Jun-11 10:28N 53°32' E 009°55'0 0.0
2018-Jun-11 09:58N 53°32' E 009°55'0 0.0
2018-Jun-11 09:28N 53°32' E 009°55'0 0.0
2018-Jun-11 08:58N 53°32' E 009°55'0 0.0
2018-Jun-11 08:28N 53°32' E 009°55'0 0.0
2018-Jun-11 07:58N 53°32' E 009°55'0 0.0
2018-Jun-11 07:28N 53°32' E 009°55'0 0.0
2018-Jun-11 06:58N 53°32' E 009°55'0 0.0
2018-Jun-11 06:28N 53°32' E 009°55'0 0.4
2018-Jun-11 06:01N 53°32' E 009°55'2 3.0
2018-Jun-11 05:31N 53°33' E 009°53'4 7.2
2018-Jun-11 05:00N 53°34' E 009°47'4 8.6
2018-Jun-11 04:31N 53°34' E 009°40'510.7
2018-Jun-11 04:00N 53°37' E 009°32'510.3
2018-Jun-11 03:30N 53°42' E 009°29'510.6
2018-Jun-11 03:00N 53°46' E 009°24'612.3
2018-Jun-11 02:30N 53°52' E 009°18'611.8
2018-Jun-11 02:00N 53°53' E 009°08'4 8.2
2018-Jun-11 01:30N 53°52' E 009°02'612.6
2018-Jun-11 01:00N 53°50' E 008°51'510.9
2018-Jun-11 00:30N 53°53' E 008°43'611.9
2018-Jun-11 00:01N 53°57' E 008°37'612.7
2018-Jun-10 23:30N 53°59' E 008°26'713.3
2018-Jun-10 23:00N 53°60' E 008°15'612.6
2018-Jun-10 22:31N 53°59' E 008°04'611.3
2018-Jun-10 22:00N 53°58' E 007°55'612.5
2018-Jun-10 21:30N 53°57' E 007°44'1013.1
2018-Jun-10 20:43N 53°54' E 007°27'412.3
2018-Jun-10 20:21N 53°53' E 007°20'1211.6
2018-Jun-10 19:21N 53°50' E 007°01'411.8
2018-Jun-10 18:58N 53°49' E 006°54'912.3
2018-Jun-10 18:16N 53°47' E 006°39'511.9
2018-Jun-10 17:49N 53°46' E 006°30'612.2
2018-Jun-10 17:22N 53°45' E 006°21'713.8
2018-Jun-10 16:52N 53°43' E 006°10'514.2
2018-Jun-10 16:30N 53°41' E 006°02'714.0
2018-Jun-10 16:00N 53°39' E 005°50'814.0
2018-Jun-10 15:26N 53°36' E 005°38'614.0
2018-Jun-10 15:00N 53°35' E 005°28'1414.4
2018-Jun-10 14:00N 53°30' E 005°06'714.9
2018-Jun-10 13:30N 53°27' E 004°54'815.4
2018-Jun-10 13:00N 53°24' E 004°42'815.6
2018-Jun-10 12:30N 53°17' E 004°36'815.6
2018-Jun-10 12:01N 53°10' E 004°30'815.2
2018-Jun-10 11:30N 53°03' E 004°24'815.1
2018-Jun-10 11:00N 52°56' E 004°18'815.1
2018-Jun-10 10:30N 52°49' E 004°13'715.0
2018-Jun-10 10:00N 52°43' E 004°08'510.1
2018-Jun-10 09:30N 52°38' E 004°04'713.2
2018-Jun-10 09:01N 52°33' E 003°57'714.3
2018-Jun-10 08:30N 52°26' E 003°54'714.2
2018-Jun-10 08:00N 52°19' E 003°51'714.5
2018-Jun-10 07:30N 52°12' E 003°53'713.1
2018-Jun-10 07:00N 52°06' E 003°54'4 7.3
2018-Jun-10 06:30N 52°02' E 003°54'713.8
2018-Jun-10 06:00N 51°59' E 004°04'2 3.3
2018-Jun-10 05:30N 51°58' E 004°02'1 2.7
2018-Jun-10 05:00N 51°58' E 004°00'0 0.9
2018-Jun-10 04:30N 51°57' E 003°60'0 0.0
2018-Jun-10 04:00N 51°57' E 003°60'0 0.0
2018-Jun-10 03:30N 51°57' E 003°60'0 0.0
2018-Jun-10 03:00N 51°57' E 003°60'0 0.0
2018-Jun-10 02:30N 51°57' E 003°60'0 0.0
2018-Jun-10 02:00N 51°57' E 003°60'0 0.0
2018-Jun-10 01:30N 51°57' E 003°60'0 0.0
2018-Jun-10 01:00N 51°57' E 003°60'0 0.0
2018-Jun-10 00:30N 51°57' E 003°60'0 0.0
2018-Jun-10 00:00N 51°57' E 003°60'0 0.0
2018-Jun-09 23:30N 51°57' E 003°60'0 0.0
2018-Jun-09 23:00N 51°57' E 003°60'0 0.0
2018-Jun-09 22:30N 51°57' E 003°60'0 0.0
2018-Jun-09 22:00N 51°57' E 003°60'0 0.0
2018-Jun-09 21:30N 51°57' E 003°60'0 0.0
2018-Jun-09 21:00N 51°57' E 003°60'0 0.0
2018-Jun-09 20:27N 51°57' E 003°60'0 0.0
2018-Jun-09 20:00N 51°57' E 003°60'0 0.0
2018-Jun-09 19:27N 51°57' E 003°60'0 0.0
2018-Jun-09 19:00N 51°57' E 003°60'0 0.0
2018-Jun-09 18:30N 51°57' E 003°60'0 0.0
2018-Jun-09 18:00N 51°57' E 003°60'0 0.0
2018-Jun-09 17:30N 51°57' E 003°60'0 0.0
2018-Jun-09 17:00N 51°57' E 003°60'0 0.0
2018-Jun-09 16:30N 51°57' E 003°60'0 0.0
2018-Jun-09 16:00N 51°57' E 003°60'0 0.0
2018-Jun-09 15:27N 51°57' E 003°60'0 0.0
2018-Jun-09 14:30N 51°57' E 003°60'0 0.0
2018-Jun-09 14:00N 51°57' E 003°60'0 0.0
2018-Jun-09 13:30N 51°57' E 003°60'0 0.0
2018-Jun-09 13:00N 51°57' E 003°60'0 0.0
2018-Jun-09 12:30N 51°57' E 003°60'0 0.0
2018-Jun-09 12:00N 51°57' E 003°60'0 0.0
2018-Jun-09 11:30N 51°57' E 003°60'0 0.0
2018-Jun-09 11:00N 51°57' E 003°60'0 0.0
2018-Jun-09 10:30N 51°57' E 003°60'0 0.0
2018-Jun-09 10:00N 51°57' E 003°60'0 0.0
2018-Jun-09 09:30N 51°57' E 003°60'0 0.0
2018-Jun-09 08:57N 51°57' E 003°60'0 0.0
2018-Jun-09 08:30N 51°57' E 003°60'0 0.0
2018-Jun-09 08:00N 51°57' E 003°60'0 0.0
2018-Jun-09 07:30N 51°57' E 003°60'0 0.0
2018-Jun-09 07:00N 51°57' E 003°60'0 0.0
2018-Jun-09 06:30N 51°57' E 003°60'0 0.0
2018-Jun-09 06:00N 51°57' E 003°60'0 0.0
2018-Jun-09 05:30N 51°57' E 003°60'0 0.0
2018-Jun-09 05:00N 51°57' E 003°60'0 0.0
2018-Jun-09 04:30N 51°57' E 003°60'0 0.0
2018-Jun-09 04:00N 51°57' E 003°60'0 0.0
2018-Jun-09 03:30N 51°57' E 003°60'0 0.0
2018-Jun-09 03:00N 51°57' E 003°60'0 0.1
2018-Jun-09 02:30N 51°57' E 003°60'0 0.0
2018-Jun-09 02:00N 51°57' E 003°60'0 0.0
2018-Jun-09 01:27N 51°57' E 003°60'0 0.0
2018-Jun-09 01:00N 51°57' E 003°60'0 0.1
2018-Jun-09 00:30N 51°57' E 003°60'1 1.8
2018-Jun-09 00:00N 51°58' E 003°60'3 5.0
2018-Jun-08 23:30N 51°58' E 004°04'2 3.5
2018-Jun-08 23:00N 51°59' E 004°02'4 8.9
2018-Jun-08 22:30N 51°60' E 003°55'510.9
2018-Jun-08 22:00N 51°59' E 003°46'510.2
2018-Jun-08 21:30N 51°58' E 003°39'612.5
2018-Jun-08 21:00N 51°56' E 003°29'714.4
2018-Jun-08 20:30N 51°54' E 003°18'714.1
2018-Jun-08 20:00N 51°52' E 003°07'815.5
2018-Jun-08 19:30N 51°50' E 002°55'815.4
2018-Jun-08 19:00N 51°47' E 002°43'714.9
2018-Jun-08 18:30N 51°43' E 002°33'715.0
2018-Jun-08 18:00N 51°38' E 002°25'714.7
2018-Jun-08 17:30N 51°32' E 002°17'714.2
2018-Jun-08 17:00N 51°26' E 002°12'714.1
2018-Jun-08 16:30N 51°19' E 002°08'713.2
2018-Jun-08 16:00N 51°14' E 002°02'713.2
2018-Jun-08 15:30N 51°10' E 001°53'510.6
2018-Jun-08 15:00N 51°07' E 001°46'510.8
2018-Jun-08 14:30N 51°03' E 001°40'612.7
2018-Jun-08 14:00N 50°58' E 001°34'712.5
2018-Jun-08 13:28N 50°53' E 001°27'612.7
2018-Jun-08 13:00N 50°47' E 001°24'612.7
2018-Jun-08 12:30N 50°42' E 001°20'612.9
2018-Jun-08 12:00N 50°37' E 001°13'713.2
2018-Jun-08 11:30N 50°33' E 001°05'713.1
2018-Jun-08 10:58N 50°29' E 000°55'713.5
2018-Jun-08 10:28N 50°27' E 000°45'613.5
2018-Jun-08 10:00N 50°26' E 000°36'713.5
2018-Jun-08 09:30N 50°24' E 000°26'713.6
2018-Jun-08 09:00N 50°22' E 000°16'713.5
2018-Jun-08 08:30N 50°19' E 000°05'713.8
2018-Jun-08 08:00N 50°17' W 000°05'713.8
2018-Jun-08 07:30N 50°15' W 000°15'713.8
2018-Jun-08 07:00N 50°12' W 000°25'713.9
2018-Jun-08 06:31N 50°10' W 000°35'714.3
2018-Jun-08 06:01N 50°08' W 000°46'714.5
2018-Jun-08 05:30N 50°05' W 000°56'815.3
2018-Jun-08 05:01N 50°03' W 001°08'816.0
2018-Jun-08 04:30N 49°60' W 001°19'815.8
2018-Jun-08 04:01N 49°54' W 001°28'815.6
2018-Jun-08 03:31N 49°48' W 001°36'612.8
2018-Jun-08 03:01N 49°44' W 001°42'4 8.2
2018-Jun-08 02:31N 49°45' W 001°48'612.0
2018-Jun-08 02:00N 49°48' W 001°56'612.4
2018-Jun-08 01:31N 49°51' W 002°05'2513.1
2018-Jun-07 23:35N 49°50' W 002°44'414.8
2018-Jun-07 23:17N 49°49' W 002°50'414.7
2018-Jun-07 23:00N 49°47' W 002°56'1614.4
2018-Jun-07 21:53N 49°39' W 003°18'  

Dump ship's entire track history